sensor_id;sensor_type;location;lat;lon;timestamp;P1;durP1;ratioP1;P2;durP2;ratioP2
4106;SDS011;21906;50.812;7.132;2022-11-15T00:00:17;9.87;;;8.47;;
4106;SDS011;21906;50.812;7.132;2022-11-15T00:02:43;10.33;;;8.20;;
4106;SDS011;21906;50.812;7.132;2022-11-15T00:05:08;9.57;;;7.93;;
4106;SDS011;21906;50.812;7.132;2022-11-15T00:07:34;8.43;;;7.63;;
4106;SDS011;21906;50.812;7.132;2022-11-15T00:09:59;8.90;;;8.00;;
4106;SDS011;21906;50.812;7.132;2022-11-15T00:12:26;8.73;;;7.80;;
4106;SDS011;21906;50.812;7.132;2022-11-15T00:14:53;8.93;;;8.03;;
4106;SDS011;21906;50.812;7.132;2022-11-15T00:17:18;11.50;;;8.73;;
4106;SDS011;21906;50.812;7.132;2022-11-15T00:19:44;11.80;;;8.90;;
4106;SDS011;21906;50.812;7.132;2022-11-15T00:22:10;9.30;;;8.30;;
4106;SDS011;21906;50.812;7.132;2022-11-15T00:24:35;9.10;;;8.20;;
4106;SDS011;21906;50.812;7.132;2022-11-15T00:27:01;8.77;;;7.93;;
4106;SDS011;21906;50.812;7.132;2022-11-15T00:29:27;11.73;;;9.30;;
4106;SDS011;21906;50.812;7.132;2022-11-15T00:31:52;9.93;;;8.47;;
4106;SDS011;21906;50.812;7.132;2022-11-15T00:34:18;11.47;;;9.40;;
4106;SDS011;21906;50.812;7.132;2022-11-15T00:36:44;8.77;;;7.87;;
4106;SDS011;21906;50.812;7.132;2022-11-15T00:39:09;12.73;;;9.00;;
4106;SDS011;21906;50.812;7.132;2022-11-15T00:41:35;9.57;;;8.57;;
4106;SDS011;21906;50.812;7.132;2022-11-15T00:44:01;11.83;;;8.73;;
4106;SDS011;21906;50.812;7.132;2022-11-15T00:46:26;9.77;;;8.70;;
4106;SDS011;21906;50.812;7.132;2022-11-15T00:48:52;9.10;;;7.90;;
4106;SDS011;21906;50.812;7.132;2022-11-15T00:51:17;9.00;;;7.70;;
4106;SDS011;21906;50.812;7.132;2022-11-15T00:53:43;9.93;;;8.23;;
4106;SDS011;21906;50.812;7.132;2022-11-15T00:56:09;9.57;;;8.00;;
4106;SDS011;21906;50.812;7.132;2022-11-15T00:58:34;8.50;;;7.70;;
4106;SDS011;21906;50.812;7.132;2022-11-15T01:01:10;10.80;;;8.73;;
4106;SDS011;21906;50.812;7.132;2022-11-15T01:03:37;9.40;;;8.03;;
4106;SDS011;21906;50.812;7.132;2022-11-15T01:06:04;8.97;;;8.10;;
4106;SDS011;21906;50.812;7.132;2022-11-15T01:08:30;8.83;;;8.03;;
4106;SDS011;21906;50.812;7.132;2022-11-15T01:11:03;9.33;;;8.37;;
4106;SDS011;21906;50.812;7.132;2022-11-15T01:13:31;15.50;;;9.13;;
4106;SDS011;21906;50.812;7.132;2022-11-15T01:15:58;11.87;;;8.80;;
4106;SDS011;21906;50.812;7.132;2022-11-15T01:18:24;11.53;;;9.00;;
4106;SDS011;21906;50.812;7.132;2022-11-15T01:20:49;12.60;;;9.43;;
4106;SDS011;21906;50.812;7.132;2022-11-15T01:23:15;9.33;;;8.00;;
4106;SDS011;21906;50.812;7.132;2022-11-15T01:25:41;9.83;;;8.77;;
4106;SDS011;21906;50.812;7.132;2022-11-15T01:28:07;9.50;;;7.93;;
4106;SDS011;21906;50.812;7.132;2022-11-15T01:30:32;11.20;;;8.93;;
4106;SDS011;21906;50.812;7.132;2022-11-15T01:32:58;9.30;;;8.27;;
4106;SDS011;21906;50.812;7.132;2022-11-15T01:35:24;9.87;;;8.30;;
4106;SDS011;21906;50.812;7.132;2022-11-15T01:37:49;9.20;;;8.23;;
4106;SDS011;21906;50.812;7.132;2022-11-15T01:40:15;9.47;;;8.47;;
4106;SDS011;21906;50.812;7.132;2022-11-15T01:42:41;10.10;;;9.10;;
4106;SDS011;21906;50.812;7.132;2022-11-15T01:45:10;8.20;;;7.50;;
4106;SDS011;21906;50.812;7.132;2022-11-15T01:47:45;9.87;;;8.30;;
4106;SDS011;21906;50.812;7.132;2022-11-15T01:50:17;10.53;;;8.60;;
4106;SDS011;21906;50.812;7.132;2022-11-15T01:52:47;9.20;;;8.30;;
4106;SDS011;21906;50.812;7.132;2022-11-15T01:57:42;12.47;;;8.80;;
4106;SDS011;21906;50.812;7.132;2022-11-15T02:00:09;8.83;;;8.03;;
4106;SDS011;21906;50.812;7.132;2022-11-15T02:02:35;8.67;;;7.83;;
4106;SDS011;21906;50.812;7.132;2022-11-15T02:05:02;9.13;;;7.80;;
4106;SDS011;21906;50.812;7.132;2022-11-15T02:07:29;10.13;;;8.80;;
4106;SDS011;21906;50.812;7.132;2022-11-15T02:10:01;9.83;;;8.63;;
4106;SDS011;21906;50.812;7.132;2022-11-15T02:12:35;11.00;;;8.00;;
4106;SDS011;21906;50.812;7.132;2022-11-15T02:15:02;9.10;;;8.20;;
4106;SDS011;21906;50.812;7.132;2022-11-15T02:25:57;9.20;;;7.80;;
4106;SDS011;21906;50.812;7.132;2022-11-15T02:28:51;9.40;;;8.00;;
4106;SDS011;21906;50.812;7.132;2022-11-15T02:36:57;8.67;;;7.80;;
4106;SDS011;21906;50.812;7.132;2022-11-15T02:39:54;9.87;;;8.80;;
4106;SDS011;21906;50.812;7.132;2022-11-15T02:42:32;8.33;;;7.53;;
4106;SDS011;21906;50.812;7.132;2022-11-15T02:45:24;11.60;;;8.10;;
4106;SDS011;21906;50.812;7.132;2022-11-15T02:47:55;9.43;;;7.80;;
4106;SDS011;21906;50.812;7.132;2022-11-15T02:50:25;10.80;;;7.70;;
4106;SDS011;21906;50.812;7.132;2022-11-15T02:52:53;9.50;;;8.17;;
4106;SDS011;21906;50.812;7.132;2022-11-15T02:57:52;8.80;;;7.90;;
4106;SDS011;21906;50.812;7.132;2022-11-15T03:00:25;8.03;;;7.33;;
4106;SDS011;21906;50.812;7.132;2022-11-15T03:11:14;8.50;;;7.60;;
4106;SDS011;21906;50.812;7.132;2022-11-15T03:19:02;10.30;;;7.30;;
4106;SDS011;21906;50.812;7.132;2022-11-15T03:21:39;8.23;;;7.30;;
4106;SDS011;21906;50.812;7.132;2022-11-15T03:24:05;7.53;;;6.83;;
4106;SDS011;21906;50.812;7.132;2022-11-15T03:26:33;7.87;;;7.17;;
4106;SDS011;21906;50.812;7.132;2022-11-15T03:29:04;8.00;;;7.20;;
4106;SDS011;21906;50.812;7.132;2022-11-15T03:32:00;7.70;;;6.93;;
4106;SDS011;21906;50.812;7.132;2022-11-15T03:34:38;9.13;;;7.30;;
4106;SDS011;21906;50.812;7.132;2022-11-15T03:37:11;11.23;;;7.60;;
4106;SDS011;21906;50.812;7.132;2022-11-15T03:39:39;8.30;;;7.50;;
4106;SDS011;21906;50.812;7.132;2022-11-15T03:42:16;8.07;;;7.20;;
4106;SDS011;21906;50.812;7.132;2022-11-15T03:44:59;7.23;;;6.53;;
4106;SDS011;21906;50.812;7.132;2022-11-15T03:47:36;7.93;;;7.20;;
4106;SDS011;21906;50.812;7.132;2022-11-15T03:50:13;9.30;;;7.53;;
4106;SDS011;21906;50.812;7.132;2022-11-15T03:52:47;7.00;;;6.40;;
4106;SDS011;21906;50.812;7.132;2022-11-15T03:55:16;7.10;;;6.50;;
4106;SDS011;21906;50.812;7.132;2022-11-15T03:57:43;7.00;;;6.30;;
4106;SDS011;21906;50.812;7.132;2022-11-15T04:00:09;8.20;;;7.10;;
4106;SDS011;21906;50.812;7.132;2022-11-15T04:02:36;7.87;;;6.67;;
4106;SDS011;21906;50.812;7.132;2022-11-15T04:05:02;7.00;;;6.40;;
4106;SDS011;21906;50.812;7.132;2022-11-15T04:07:28;7.27;;;6.57;;
4106;SDS011;21906;50.812;7.132;2022-11-15T04:09:54;7.93;;;7.23;;
4106;SDS011;21906;50.812;7.132;2022-11-15T04:12:29;7.93;;;7.13;;
4106;SDS011;21906;50.812;7.132;2022-11-15T04:15:05;6.90;;;6.20;;
4106;SDS011;21906;50.812;7.132;2022-11-15T04:17:46;7.30;;;6.70;;
4106;SDS011;21906;50.812;7.132;2022-11-15T04:20:15;6.50;;;5.90;;
4106;SDS011;21906;50.812;7.132;2022-11-15T04:23:00;7.10;;;6.50;;
4106;SDS011;21906;50.812;7.132;2022-11-15T04:25:47;6.90;;;6.20;;
4106;SDS011;21906;50.812;7.132;2022-11-15T04:28:16;7.00;;;6.50;;
4106;SDS011;21906;50.812;7.132;2022-11-15T04:30:42;6.80;;;6.20;;
4106;SDS011;21906;50.812;7.132;2022-11-15T04:33:08;6.37;;;5.77;;
4106;SDS011;21906;50.812;7.132;2022-11-15T04:35:34;6.10;;;5.50;;
4106;SDS011;21906;50.812;7.132;2022-11-15T04:37:59;6.20;;;5.80;;
4106;SDS011;21906;50.812;7.132;2022-11-15T04:40:26;6.37;;;5.77;;
4106;SDS011;21906;50.812;7.132;2022-11-15T04:42:52;6.97;;;6.37;;
4106;SDS011;21906;50.812;7.132;2022-11-15T04:45:18;6.20;;;5.60;;
4106;SDS011;21906;50.812;7.132;2022-11-15T04:47:44;5.90;;;5.40;;
4106;SDS011;21906;50.812;7.132;2022-11-15T04:50:10;5.67;;;5.20;;
4106;SDS011;21906;50.812;7.132;2022-11-15T04:52:40;6.03;;;5.63;;
4106;SDS011;21906;50.812;7.132;2022-11-15T04:55:07;4.97;;;4.60;;
4106;SDS011;21906;50.812;7.132;2022-11-15T04:57:36;7.40;;;6.10;;
4106;SDS011;21906;50.812;7.132;2022-11-15T05:00:04;5.90;;;5.30;;
4106;SDS011;21906;50.812;7.132;2022-11-15T05:02:31;5.53;;;5.13;;
4106;SDS011;21906;50.812;7.132;2022-11-15T05:05:19;5.63;;;5.17;;
4106;SDS011;21906;50.812;7.132;2022-11-15T05:07:45;5.23;;;4.77;;
4106;SDS011;21906;50.812;7.132;2022-11-15T05:10:11;5.50;;;5.00;;
4106;SDS011;21906;50.812;7.132;2022-11-15T05:12:37;5.43;;;4.93;;
4106;SDS011;21906;50.812;7.132;2022-11-15T05:15:03;5.67;;;5.20;;
4106;SDS011;21906;50.812;7.132;2022-11-15T05:17:29;6.13;;;5.67;;
4106;SDS011;21906;50.812;7.132;2022-11-15T05:19:54;5.67;;;5.17;;
4106;SDS011;21906;50.812;7.132;2022-11-15T05:22:20;5.63;;;5.13;;
4106;SDS011;21906;50.812;7.132;2022-11-15T05:24:46;5.60;;;5.20;;
4106;SDS011;21906;50.812;7.132;2022-11-15T05:27:12;5.73;;;5.33;;
4106;SDS011;21906;50.812;7.132;2022-11-15T05:29:37;5.33;;;4.93;;
4106;SDS011;21906;50.812;7.132;2022-11-15T05:32:04;5.23;;;4.73;;
4106;SDS011;21906;50.812;7.132;2022-11-15T05:34:31;4.97;;;4.47;;
4106;SDS011;21906;50.812;7.132;2022-11-15T05:36:57;4.87;;;4.47;;
4106;SDS011;21906;50.812;7.132;2022-11-15T05:39:23;4.57;;;4.17;;
4106;SDS011;21906;50.812;7.132;2022-11-15T05:41:54;4.20;;;3.90;;
4106;SDS011;21906;50.812;7.132;2022-11-15T05:44:26;4.30;;;4.00;;
4106;SDS011;21906;50.812;7.132;2022-11-15T05:46:52;3.93;;;3.70;;
4106;SDS011;21906;50.812;7.132;2022-11-15T05:49:21;4.80;;;4.30;;
4106;SDS011;21906;50.812;7.132;2022-11-15T05:51:50;5.23;;;4.10;;
4106;SDS011;21906;50.812;7.132;2022-11-15T05:54:18;4.13;;;3.83;;
4106;SDS011;21906;50.812;7.132;2022-11-15T05:56:46;5.53;;;5.13;;
4106;SDS011;21906;50.812;7.132;2022-11-15T05:59:12;4.80;;;4.50;;
4106;SDS011;21906;50.812;7.132;2022-11-15T06:01:38;5.00;;;4.23;;
4106;SDS011;21906;50.812;7.132;2022-11-15T06:04:04;4.73;;;4.33;;
4106;SDS011;21906;50.812;7.132;2022-11-15T06:06:30;5.00;;;4.60;;
4106;SDS011;21906;50.812;7.132;2022-11-15T06:08:55;4.60;;;4.20;;
4106;SDS011;21906;50.812;7.132;2022-11-15T06:11:21;4.50;;;4.20;;
4106;SDS011;21906;50.812;7.132;2022-11-15T06:13:47;4.63;;;4.33;;
4106;SDS011;21906;50.812;7.132;2022-11-15T06:16:12;4.50;;;4.20;;
4106;SDS011;21906;50.812;7.132;2022-11-15T06:18:38;4.77;;;4.40;;
4106;SDS011;21906;50.812;7.132;2022-11-15T06:21:04;4.73;;;4.33;;
4106;SDS011;21906;50.812;7.132;2022-11-15T06:23:34;5.00;;;4.70;;
4106;SDS011;21906;50.812;7.132;2022-11-15T06:26:00;4.67;;;4.37;;
4106;SDS011;21906;50.812;7.132;2022-11-15T06:28:30;4.67;;;4.37;;
4106;SDS011;21906;50.812;7.132;2022-11-15T06:31:01;5.03;;;4.63;;
4106;SDS011;21906;50.812;7.132;2022-11-15T06:33:31;4.00;;;3.80;;
4106;SDS011;21906;50.812;7.132;2022-11-15T06:36:04;4.93;;;4.53;;
4106;SDS011;21906;50.812;7.132;2022-11-15T06:38:32;4.40;;;4.10;;
4106;SDS011;21906;50.812;7.132;2022-11-15T06:41:03;4.63;;;4.27;;
4106;SDS011;21906;50.812;7.132;2022-11-15T06:43:32;4.60;;;4.30;;
4106;SDS011;21906;50.812;7.132;2022-11-15T06:45:58;4.90;;;4.60;;
4106;SDS011;21906;50.812;7.132;2022-11-15T06:48:28;5.07;;;4.57;;
4106;SDS011;21906;50.812;7.132;2022-11-15T06:50:55;5.40;;;5.00;;
4106;SDS011;21906;50.812;7.132;2022-11-15T06:53:22;4.97;;;4.60;;
4106;SDS011;21906;50.812;7.132;2022-11-15T06:55:48;4.83;;;4.43;;
4106;SDS011;21906;50.812;7.132;2022-11-15T06:58:14;4.60;;;4.30;;
4106;SDS011;21906;50.812;7.132;2022-11-15T07:00:39;4.90;;;4.50;;
4106;SDS011;21906;50.812;7.132;2022-11-15T07:03:05;4.50;;;4.20;;
4106;SDS011;21906;50.812;7.132;2022-11-15T07:05:31;4.93;;;4.53;;
4106;SDS011;21906;50.812;7.132;2022-11-15T07:07:57;4.80;;;4.40;;
4106;SDS011;21906;50.812;7.132;2022-11-15T07:10:24;4.93;;;4.57;;
4106;SDS011;21906;50.812;7.132;2022-11-15T07:12:51;4.67;;;4.30;;
4106;SDS011;21906;50.812;7.132;2022-11-15T07:15:17;4.60;;;4.27;;
4106;SDS011;21906;50.812;7.132;2022-11-15T07:17:44;4.20;;;3.90;;
4106;SDS011;21906;50.812;7.132;2022-11-15T07:20:10;5.53;;;4.50;;
4106;SDS011;21906;50.812;7.132;2022-11-15T07:22:36;3.93;;;3.63;;
4106;SDS011;21906;50.812;7.132;2022-11-15T07:25:02;3.87;;;3.53;;
4106;SDS011;21906;50.812;7.132;2022-11-15T07:27:28;3.80;;;3.50;;
4106;SDS011;21906;50.812;7.132;2022-11-15T07:29:54;4.40;;;4.00;;
4106;SDS011;21906;50.812;7.132;2022-11-15T07:32:19;5.90;;;3.50;;
4106;SDS011;21906;50.812;7.132;2022-11-15T07:34:45;3.40;;;3.10;;
4106;SDS011;21906;50.812;7.132;2022-11-15T07:37:11;3.40;;;3.10;;
4106;SDS011;21906;50.812;7.132;2022-11-15T07:39:37;2.93;;;2.73;;
4106;SDS011;21906;50.812;7.132;2022-11-15T07:42:03;3.30;;;3.00;;
4106;SDS011;21906;50.812;7.132;2022-11-15T07:44:48;3.20;;;2.90;;
4106;SDS011;21906;50.812;7.132;2022-11-15T07:47:13;2.80;;;2.60;;
4106;SDS011;21906;50.812;7.132;2022-11-15T07:49:39;2.73;;;2.53;;
4106;SDS011;21906;50.812;7.132;2022-11-15T07:52:05;3.60;;;2.73;;
4106;SDS011;21906;50.812;7.132;2022-11-15T07:54:30;2.80;;;2.60;;
4106;SDS011;21906;50.812;7.132;2022-11-15T07:56:56;2.77;;;2.53;;
4106;SDS011;21906;50.812;7.132;2022-11-15T07:59:22;3.13;;;2.93;;
4106;SDS011;21906;50.812;7.132;2022-11-15T08:01:47;3.30;;;3.10;;
4106;SDS011;21906;50.812;7.132;2022-11-15T08:04:13;3.60;;;2.83;;
4106;SDS011;21906;50.812;7.132;2022-11-15T08:06:39;3.67;;;3.37;;
4106;SDS011;21906;50.812;7.132;2022-11-15T08:09:04;3.20;;;3.00;;
4106;SDS011;21906;50.812;7.132;2022-11-15T08:11:30;3.30;;;3.07;;
4106;SDS011;21906;50.812;7.132;2022-11-15T08:13:55;2.50;;;2.30;;
4106;SDS011;21906;50.812;7.132;2022-11-15T08:16:21;2.83;;;2.50;;
4106;SDS011;21906;50.812;7.132;2022-11-15T08:18:47;2.80;;;2.60;;
4106;SDS011;21906;50.812;7.132;2022-11-15T08:21:13;2.40;;;2.20;;
4106;SDS011;21906;50.812;7.132;2022-11-15T08:23:43;2.17;;;2.07;;
4106;SDS011;21906;50.812;7.132;2022-11-15T08:26:09;3.00;;;2.57;;
4106;SDS011;21906;50.812;7.132;2022-11-15T08:28:34;4.20;;;3.50;;
4106;SDS011;21906;50.812;7.132;2022-11-15T08:31:00;3.00;;;2.70;;
4106;SDS011;21906;50.812;7.132;2022-11-15T08:33:27;2.50;;;2.30;;
4106;SDS011;21906;50.812;7.132;2022-11-15T08:35:55;2.73;;;2.53;;
4106;SDS011;21906;50.812;7.132;2022-11-15T08:38:22;2.77;;;2.57;;
4106;SDS011;21906;50.812;7.132;2022-11-15T08:40:48;2.80;;;2.60;;
4106;SDS011;21906;50.812;7.132;2022-11-15T08:43:16;2.57;;;2.37;;
4106;SDS011;21906;50.812;7.132;2022-11-15T08:45:42;2.67;;;2.30;;
4106;SDS011;21906;50.812;7.132;2022-11-15T08:48:08;2.87;;;2.30;;
4106;SDS011;21906;50.812;7.132;2022-11-15T08:50:33;2.30;;;2.20;;
4106;SDS011;21906;50.812;7.132;2022-11-15T08:53:06;2.53;;;2.33;;
4106;SDS011;21906;50.812;7.132;2022-11-15T08:55:35;2.30;;;2.10;;
4106;SDS011;21906;50.812;7.132;2022-11-15T08:58:02;2.50;;;2.30;;
4106;SDS011;21906;50.812;7.132;2022-11-15T09:00:28;2.40;;;2.20;;
4106;SDS011;21906;50.812;7.132;2022-11-15T09:02:53;2.60;;;2.40;;
4106;SDS011;21906;50.812;7.132;2022-11-15T09:05:19;2.13;;;2.03;;
4106;SDS011;21906;50.812;7.132;2022-11-15T09:07:45;2.73;;;2.53;;
4106;SDS011;21906;50.812;7.132;2022-11-15T09:10:10;2.17;;;1.97;;
4106;SDS011;21906;50.812;7.132;2022-11-15T09:12:36;2.50;;;2.30;;
4106;SDS011;21906;50.812;7.132;2022-11-15T09:15:02;3.40;;;2.50;;
4106;SDS011;21906;50.812;7.132;2022-11-15T09:17:28;2.23;;;2.03;;
4106;SDS011;21906;50.812;7.132;2022-11-15T09:19:54;2.17;;;2.07;;
4106;SDS011;21906;50.812;7.132;2022-11-15T09:22:20;2.43;;;2.30;;
4106;SDS011;21906;50.812;7.132;2022-11-15T09:24:45;2.50;;;2.30;;
4106;SDS011;21906;50.812;7.132;2022-11-15T09:27:11;5.20;;;2.77;;
4106;SDS011;21906;50.812;7.132;2022-11-15T09:29:38;3.00;;;2.80;;
4106;SDS011;21906;50.812;7.132;2022-11-15T09:32:04;2.90;;;2.40;;
4106;SDS011;21906;50.812;7.132;2022-11-15T09:34:29;3.20;;;2.50;;
4106;SDS011;21906;50.812;7.132;2022-11-15T09:36:55;2.30;;;2.10;;
4106;SDS011;21906;50.812;7.132;2022-11-15T09:39:21;2.67;;;2.47;;
4106;SDS011;21906;50.812;7.132;2022-11-15T09:42:05;4.73;;;2.77;;
4106;SDS011;21906;50.812;7.132;2022-11-15T09:50:01;2.07;;;1.70;;
4106;SDS011;21906;50.812;7.132;2022-11-15T09:52:41;2.00;;;1.90;;
4106;SDS011;21906;50.812;7.132;2022-11-15T09:55:13;2.80;;;1.80;;
4106;SDS011;21906;50.812;7.132;2022-11-15T10:00:35;2.17;;;1.67;;
4106;SDS011;21906;50.812;7.132;2022-11-15T10:03:09;2.10;;;1.90;;
4106;SDS011;21906;50.812;7.132;2022-11-15T10:05:48;1.70;;;1.60;;
4106;SDS011;21906;50.812;7.132;2022-11-15T10:08:40;1.70;;;1.60;;
4106;SDS011;21906;50.812;7.132;2022-11-15T10:11:20;1.50;;;1.40;;
4106;SDS011;21906;50.812;7.132;2022-11-15T10:13:50;1.50;;;1.40;;
4106;SDS011;21906;50.812;7.132;2022-11-15T10:24:26;1.67;;;1.20;;
4106;SDS011;21906;50.812;7.132;2022-11-15T10:26:54;1.77;;;1.20;;
4106;SDS011;21906;50.812;7.132;2022-11-15T10:29:22;2.03;;;1.23;;
4106;SDS011;21906;50.812;7.132;2022-11-15T10:31:49;1.20;;;1.10;;
4106;SDS011;21906;50.812;7.132;2022-11-15T10:34:22;2.33;;;1.30;;
4106;SDS011;21906;50.812;7.132;2022-11-15T10:39:21;1.20;;;1.03;;
4106;SDS011;21906;50.812;7.132;2022-11-15T10:41:47;1.40;;;1.10;;
4106;SDS011;21906;50.812;7.132;2022-11-15T10:46:41;1.30;;;1.20;;
4106;SDS011;21906;50.812;7.132;2022-11-15T10:49:21;2.50;;;1.20;;
4106;SDS011;21906;50.812;7.132;2022-11-15T10:51:52;1.00;;;0.83;;
4106;SDS011;21906;50.812;7.132;2022-11-15T10:54:31;1.20;;;1.10;;
4106;SDS011;21906;50.812;7.132;2022-11-15T10:57:20;1.83;;;1.10;;
4106;SDS011;21906;50.812;7.132;2022-11-15T10:59:51;2.13;;;1.00;;
4106;SDS011;21906;50.812;7.132;2022-11-15T11:04:54;1.30;;;1.10;;
4106;SDS011;21906;50.812;7.132;2022-11-15T11:07:21;1.43;;;1.10;;
4106;SDS011;21906;50.812;7.132;2022-11-15T11:09:59;1.40;;;0.97;;
4106;SDS011;21906;50.812;7.132;2022-11-15T11:12:31;1.63;;;1.30;;
4106;SDS011;21906;50.812;7.132;2022-11-15T11:14:59;1.10;;;0.90;;
4106;SDS011;21906;50.812;7.132;2022-11-15T11:17:32;1.80;;;1.10;;
4106;SDS011;21906;50.812;7.132;2022-11-15T11:22:56;1.40;;;0.93;;
4106;SDS011;21906;50.812;7.132;2022-11-15T11:25:39;1.93;;;1.20;;
4106;SDS011;21906;50.812;7.132;2022-11-15T11:31:37;2.10;;;1.30;;
4106;SDS011;21906;50.812;7.132;2022-11-15T11:37:21;1.43;;;1.00;;
4106;SDS011;21906;50.812;7.132;2022-11-15T11:40:00;1.57;;;1.00;;
4106;SDS011;21906;50.812;7.132;2022-11-15T11:51:32;1.30;;;1.20;;
4106;SDS011;21906;50.812;7.132;2022-11-15T11:54:17;1.40;;;1.17;;
4106;SDS011;21906;50.812;7.132;2022-11-15T11:57:00;1.80;;;1.47;;
4106;SDS011;21906;50.812;7.132;2022-11-15T11:59:37;2.73;;;1.30;;
4106;SDS011;21906;50.812;7.132;2022-11-15T12:02:21;2.10;;;1.20;;
4106;SDS011;21906;50.812;7.132;2022-11-15T12:04:53;2.60;;;1.50;;
4106;SDS011;21906;50.812;7.132;2022-11-15T12:07:29;1.37;;;1.10;;
4106;SDS011;21906;50.812;7.132;2022-11-15T12:09:58;2.70;;;1.10;;
4106;SDS011;21906;50.812;7.132;2022-11-15T12:15:24;2.03;;;1.33;;
4106;SDS011;21906;50.812;7.132;2022-11-15T12:17:54;2.90;;;1.30;;
4106;SDS011;21906;50.812;7.132;2022-11-15T12:20:22;2.47;;;1.50;;
4106;SDS011;21906;50.812;7.132;2022-11-15T12:22:53;2.37;;;1.50;;
4106;SDS011;21906;50.812;7.132;2022-11-15T12:27:59;3.00;;;1.60;;
4106;SDS011;21906;50.812;7.132;2022-11-15T12:33:54;2.13;;;1.93;;
4106;SDS011;21906;50.812;7.132;2022-11-15T12:41:26;2.03;;;1.70;;
4106;SDS011;21906;50.812;7.132;2022-11-15T12:43:52;1.87;;;1.77;;
4106;SDS011;21906;50.812;7.132;2022-11-15T12:46:21;2.90;;;2.03;;
4106;SDS011;21906;50.812;7.132;2022-11-15T12:48:53;2.00;;;1.90;;
4106;SDS011;21906;50.812;7.132;2022-11-15T12:51:21;2.57;;;2.20;;
4106;SDS011;21906;50.812;7.132;2022-11-15T13:00:05;2.20;;;2.00;;
4106;SDS011;21906;50.812;7.132;2022-11-15T13:02:41;2.53;;;2.10;;
4106;SDS011;21906;50.812;7.132;2022-11-15T13:23:29;3.73;;;2.30;;
4106;SDS011;21906;50.812;7.132;2022-11-15T13:33:39;2.77;;;2.53;;
4106;SDS011;21906;50.812;7.132;2022-11-15T13:36:15;2.33;;;2.13;;
4106;SDS011;21906;50.812;7.132;2022-11-15T13:38:54;2.43;;;2.23;;
4106;SDS011;21906;50.812;7.132;2022-11-15T13:41:28;3.00;;;2.80;;
4106;SDS011;21906;50.812;7.132;2022-11-15T13:43:56;2.60;;;2.50;;
4106;SDS011;21906;50.812;7.132;2022-11-15T13:46:29;2.60;;;2.40;;
4106;SDS011;21906;50.812;7.132;2022-11-15T13:49:04;2.40;;;2.20;;
4106;SDS011;21906;50.812;7.132;2022-11-15T13:54:33;2.43;;;2.23;;
4106;SDS011;21906;50.812;7.132;2022-11-15T13:59:46;2.63;;;2.43;;
4106;SDS011;21906;50.812;7.132;2022-11-15T14:02:20;5.30;;;2.73;;
4106;SDS011;21906;50.812;7.132;2022-11-15T14:04:51;2.70;;;2.13;;
4106;SDS011;21906;50.812;7.132;2022-11-15T14:07:21;2.70;;;2.40;;
4106;SDS011;21906;50.812;7.132;2022-11-15T14:09:48;2.53;;;2.17;;
4106;SDS011;21906;50.812;7.132;2022-11-15T14:15:00;3.50;;;2.80;;
4106;SDS011;21906;50.812;7.132;2022-11-15T14:17:42;3.03;;;2.80;;
4106;SDS011;21906;50.812;7.132;2022-11-15T14:20:28;2.80;;;2.60;;
4106;SDS011;21906;50.812;7.132;2022-11-15T14:23:04;2.50;;;2.30;;
4106;SDS011;21906;50.812;7.132;2022-11-15T14:25:54;2.80;;;2.50;;
4106;SDS011;21906;50.812;7.132;2022-11-15T14:30:47;2.30;;;2.10;;
4106;SDS011;21906;50.812;7.132;2022-11-15T14:33:34;4.40;;;2.13;;
4106;SDS011;21906;50.812;7.132;2022-11-15T14:38:37;2.40;;;2.10;;
4106;SDS011;21906;50.812;7.132;2022-11-15T14:41:03;2.00;;;1.90;;
4106;SDS011;21906;50.812;7.132;2022-11-15T14:43:29;4.37;;;2.17;;
4106;SDS011;21906;50.812;7.132;2022-11-15T14:45:55;2.33;;;2.13;;
4106;SDS011;21906;50.812;7.132;2022-11-15T14:48:21;2.30;;;2.10;;
4106;SDS011;21906;50.812;7.132;2022-11-15T14:50:47;2.20;;;2.03;;
4106;SDS011;21906;50.812;7.132;2022-11-15T14:53:16;2.70;;;1.73;;
4106;SDS011;21906;50.812;7.132;2022-11-15T14:55:43;2.70;;;2.50;;
4106;SDS011;21906;50.812;7.132;2022-11-15T14:58:09;2.40;;;2.20;;
4106;SDS011;21906;50.812;7.132;2022-11-15T15:00:36;2.83;;;2.60;;
4106;SDS011;21906;50.812;7.132;2022-11-15T15:03:03;2.70;;;2.50;;
4106;SDS011;21906;50.812;7.132;2022-11-15T15:05:31;2.40;;;2.27;;
4106;SDS011;21906;50.812;7.132;2022-11-15T15:08:03;3.83;;;2.30;;
4106;SDS011;21906;50.812;7.132;2022-11-15T15:10:33;2.20;;;2.00;;
4106;SDS011;21906;50.812;7.132;2022-11-15T15:13:15;2.33;;;2.00;;
4106;SDS011;21906;50.812;7.132;2022-11-15T15:15:41;2.27;;;2.07;;
4106;SDS011;21906;50.812;7.132;2022-11-15T15:18:07;2.40;;;2.07;;
4106;SDS011;21906;50.812;7.132;2022-11-15T15:20:34;2.80;;;2.60;;
4106;SDS011;21906;50.812;7.132;2022-11-15T15:23:01;2.40;;;2.20;;
4106;SDS011;21906;50.812;7.132;2022-11-15T15:25:28;2.77;;;2.67;;
4106;SDS011;21906;50.812;7.132;2022-11-15T15:27:57;2.93;;;2.60;;
4106;SDS011;21906;50.812;7.132;2022-11-15T15:30:23;4.07;;;2.57;;
4106;SDS011;21906;50.812;7.132;2022-11-15T15:32:50;3.23;;;2.50;;
4106;SDS011;21906;50.812;7.132;2022-11-15T15:35:16;2.70;;;2.50;;
4106;SDS011;21906;50.812;7.132;2022-11-15T15:37:43;2.83;;;2.63;;
4106;SDS011;21906;50.812;7.132;2022-11-15T15:40:10;2.90;;;2.63;;
4106;SDS011;21906;50.812;7.132;2022-11-15T15:42:42;2.40;;;2.30;;
4106;SDS011;21906;50.812;7.132;2022-11-15T15:45:08;2.90;;;2.70;;
4106;SDS011;21906;50.812;7.132;2022-11-15T15:47:34;2.77;;;2.57;;
4106;SDS011;21906;50.812;7.132;2022-11-15T15:50:00;2.90;;;2.10;;
4106;SDS011;21906;50.812;7.132;2022-11-15T15:52:26;2.33;;;2.23;;
4106;SDS011;21906;50.812;7.132;2022-11-15T15:54:52;2.80;;;2.60;;
4106;SDS011;21906;50.812;7.132;2022-11-15T15:57:17;2.60;;;2.40;;
4106;SDS011;21906;50.812;7.132;2022-11-15T15:59:43;3.20;;;2.90;;
4106;SDS011;21906;50.812;7.132;2022-11-15T16:02:12;5.87;;;5.37;;
4106;SDS011;21906;50.812;7.132;2022-11-15T16:04:38;6.80;;;6.20;;
4106;SDS011;21906;50.812;7.132;2022-11-15T16:07:04;2.90;;;2.60;;
4106;SDS011;21906;50.812;7.132;2022-11-15T16:09:30;2.17;;;2.07;;
4106;SDS011;21906;50.812;7.132;2022-11-15T16:12:19;2.90;;;2.60;;
4106;SDS011;21906;50.812;7.132;2022-11-15T16:14:44;2.93;;;2.30;;
4106;SDS011;21906;50.812;7.132;2022-11-15T16:17:13;2.60;;;2.40;;
4106;SDS011;21906;50.812;7.132;2022-11-15T16:19:45;3.20;;;2.90;;
4106;SDS011;21906;50.812;7.132;2022-11-15T16:22:11;4.00;;;2.63;;
4106;SDS011;21906;50.812;7.132;2022-11-15T16:24:37;3.07;;;2.87;;
4106;SDS011;21906;50.812;7.132;2022-11-15T16:27:02;3.90;;;3.00;;
4106;SDS011;21906;50.812;7.132;2022-11-15T16:29:28;3.57;;;3.10;;
4106;SDS011;21906;50.812;7.132;2022-11-15T16:31:54;3.37;;;3.07;;
4106;SDS011;21906;50.812;7.132;2022-11-15T16:34:20;2.63;;;2.43;;
4106;SDS011;21906;50.812;7.132;2022-11-15T16:36:47;3.30;;;3.00;;
4106;SDS011;21906;50.812;7.132;2022-11-15T16:39:13;2.90;;;2.70;;
4106;SDS011;21906;50.812;7.132;2022-11-15T16:41:42;3.63;;;2.70;;
4106;SDS011;21906;50.812;7.132;2022-11-15T16:44:11;2.53;;;2.43;;
4106;SDS011;21906;50.812;7.132;2022-11-15T16:46:37;3.00;;;2.80;;
4106;SDS011;21906;50.812;7.132;2022-11-15T16:49:10;2.70;;;2.50;;
4106;SDS011;21906;50.812;7.132;2022-11-15T16:51:39;2.97;;;2.77;;
4106;SDS011;21906;50.812;7.132;2022-11-15T16:54:05;2.90;;;2.70;;
4106;SDS011;21906;50.812;7.132;2022-11-15T16:56:32;3.10;;;2.87;;
4106;SDS011;21906;50.812;7.132;2022-11-15T16:58:58;3.30;;;3.00;;
4106;SDS011;21906;50.812;7.132;2022-11-15T17:01:26;2.37;;;2.27;;
4106;SDS011;21906;50.812;7.132;2022-11-15T17:03:53;3.00;;;2.80;;
4106;SDS011;21906;50.812;7.132;2022-11-15T17:06:19;2.80;;;2.60;;
4106;SDS011;21906;50.812;7.132;2022-11-15T17:08:46;2.83;;;2.60;;
4106;SDS011;21906;50.812;7.132;2022-11-15T17:11:15;3.10;;;2.90;;
4106;SDS011;21906;50.812;7.132;2022-11-15T17:13:42;2.67;;;2.47;;
4106;SDS011;21906;50.812;7.132;2022-11-15T17:16:10;3.13;;;2.93;;
4106;SDS011;21906;50.812;7.132;2022-11-15T17:18:38;2.90;;;2.70;;
4106;SDS011;21906;50.812;7.132;2022-11-15T17:21:14;3.03;;;2.83;;
4106;SDS011;21906;50.812;7.132;2022-11-15T17:23:41;3.30;;;3.00;;
4106;SDS011;21906;50.812;7.132;2022-11-15T17:26:08;2.97;;;2.67;;